Time;durP1;ratioP1;P1;durP2;ratioP2;P2;SDS_P1;SDS_P2;PMS_P1;PMS_P2;Temp;Humidity;BMP_temperature;BMP_pressure;BME280_temperature;BME280_humidity;BME280_pressure;Samples;Min_cycle;Max_cycle;Signal;HPM_P1;HPM_P2
2022/01/29 00:01:05;;;;;;;65.90;34.92;;;;;;;5.49;93.01;102877.22;5005179;28;20120;-63
2022/01/29 00:03:30;;;;;;;69.80;34.20;;;;;;;5.52;93.03;102885.09;5003479;28;20085;-63
2022/01/29 00:05:57;;;;;;;71.82;35.03;;;;;;;5.61;92.24;102867.84;5003522;28;20037;-63
2022/01/29 00:08:23;;;;;;;76.40;35.63;;;;;;;5.58;92.82;102854.53;5005290;28;20491;-63
2022/01/29 00:10:53;;;;;;;73.72;37.15;;;;;;;5.61;92.63;102854.22;5004339;28;20109;-63
2022/01/29 00:13:19;;;;;;;68.97;35.63;;;;;;;5.60;92.59;102863.41;5004950;28;20030;-63
2022/01/29 00:15:44;;;;;;;72.88;35.58;;;;;;;5.62;92.49;102863.25;5003463;28;20040;-63
2022/01/29 00:18:09;;;;;;;73.07;34.47;;;;;;;5.70;92.14;102860.66;5001552;28;20064;-63
2022/01/29 00:20:34;;;;;;;64.68;33.30;;;;;;;5.63;92.79;102849.50;5003747;28;20073;-63
2022/01/29 00:23:00;;;;;;;74.25;35.30;;;;;;;5.67;92.31;102848.19;5003078;28;20026;-62
2022/01/29 00:25:25;;;;;;;67.30;34.78;;;;;;;5.62;92.95;102842.31;5004997;28;20030;-63
2022/01/29 00:27:52;;;;;;;70.47;32.17;;;;;;;5.71;92.32;102835.97;5003471;28;20026;-63
2022/01/29 00:30:18;;;;;;;67.68;34.88;;;;;;;5.71;92.76;102838.69;5004589;28;20057;-63
2022/01/29 00:32:44;;;;;;;69.05;34.33;;;;;;;5.70;92.50;102823.34;5004632;28;20061;-63
2022/01/29 00:35:10;;;;;;;70.00;34.72;;;;;;;5.65;93.09;102827.53;5004237;28;20026;-63
2022/01/29 00:37:35;;;;;;;70.90;36.70;;;;;;;5.70;92.61;102828.81;5004214;28;20036;-63
2022/01/29 00:40:01;;;;;;;65.05;33.70;;;;;;;5.85;91.92;102828.31;5003701;28;20036;-63
2022/01/29 00:42:26;;;;;;;67.07;35.47;;;;;;;5.88;91.61;102830.72;5000330;28;20030;-63
2022/01/29 00:44:52;;;;;;;73.47;37.60;;;;;;;5.70;92.89;102834.25;5004302;28;20030;-62
2022/01/29 00:47:17;;;;;;;71.10;34.15;;;;;;;5.70;92.81;102830.69;5004422;28;20433;-63
2022/01/29 00:49:43;;;;;;;72.78;34.45;;;;;;;5.72;92.95;102820.47;5003748;28;20038;-63
2022/01/29 00:52:09;;;;;;;67.03;35.42;;;;;;;5.72;92.69;102815.88;5002485;28;20030;-63
2022/01/29 00:54:34;;;;;;;74.95;36.72;;;;;;;5.73;92.99;102808.56;5004864;28;20627;-63
2022/01/29 00:56:59;;;;;;;75.03;34.80;;;;;;;5.82;92.25;102809.50;5004092;28;20057;-63
2022/01/29 00:59:25;;;;;;;70.70;35.60;;;;;;;5.75;92.77;102805.69;5000725;28;20692;-63
2022/01/29 01:01:50;;;;;;;68.60;36.35;;;;;;;5.74;93.19;102793.94;5002064;28;20117;-63
2022/01/29 01:04:15;;;;;;;69.03;36.03;;;;;;;5.76;93.18;102796.50;5004024;28;20064;-63
2022/01/29 01:06:41;;;;;;;72.95;36.28;;;;;;;5.75;93.34;102783.88;5002353;28;20041;-62
2022/01/29 01:09:06;;;;;;;69.70;36.58;;;;;;;5.75;93.31;102779.28;5003487;28;20041;-63
2022/01/29 01:11:31;;;;;;;70.53;35.92;;;;;;;5.77;93.25;102781.84;5004394;28;20034;-63
2022/01/29 01:13:56;;;;;;;73.80;36.55;;;;;;;5.71;93.66;102767.81;5003355;28;20393;-63
2022/01/29 01:16:22;;;;;;;72.47;35.92;;;;;;;5.78;93.68;102759.03;5004014;28;20040;-63
2022/01/29 01:18:48;;;;;;;73.22;35.67;;;;;;;5.75;93.94;102764.78;5003577;28;20535;-63
2022/01/29 01:21:13;;;;;;;73.63;37.63;;;;;;;5.75;93.43;102759.34;5001372;28;20044;-62
2022/01/29 01:23:38;;;;;;;73.03;36.85;;;;;;;5.78;93.90;102743.53;5003533;28;20080;-62
2022/01/29 01:26:04;;;;;;;74.43;36.55;;;;;;;5.70;94.59;102741.56;5004185;28;20044;-63
2022/01/29 01:28:30;;;;;;;73.47;37.47;;;;;;;5.71;94.68;102742.41;5004309;28;20018;-63
2022/01/29 01:30:55;;;;;;;72.70;37.70;;;;;;;5.75;94.65;102732.94;5003085;28;20057;-63
2022/01/29 01:33:20;;;;;;;74.28;34.83;;;;;;;5.80;94.47;102724.31;5003469;28;20034;-63
2022/01/29 01:35:50;;;;;;;72.97;38.58;;;;;;;5.69;94.88;102712.59;5002867;28;20030;-63
2022/01/29 01:40:49;;;;;;;73.78;37.10;;;;;;;5.70;95.13;102719.75;5003429;28;20034;-63
2022/01/29 01:43:14;;;;;;;76.60;37.95;;;;;;;5.69;95.06;102726.22;5002324;28;20030;-63
2022/01/29 01:45:40;;;;;;;72.25;36.60;;;;;;;5.67;95.57;102721.91;5002074;28;20377;-63
2022/01/29 01:48:06;;;;;;;62.45;34.58;;;;;;;5.81;94.85;102715.09;5004071;28;20388;-63
2022/01/29 01:50:33;;;;;;;77.28;39.13;;;;;;;5.69;95.59;102706.28;5000597;28;20092;-63
2022/01/29 01:52:59;;;;;;;79.57;39.47;;;;;;;5.64;95.97;102705.88;5001984;28;20731;-63
2022/01/29 01:55:24;;;;;;;77.47;39.08;;;;;;;5.60;96.43;102702.59;5003416;28;20042;-63
2022/01/29 01:57:50;;;;;;;72.05;35.53;;;;;;;5.62;96.79;102695.13;5003329;28;20033;-63
2022/01/29 02:00:15;;;;;;;77.85;40.03;;;;;;;5.54;97.16;102697.78;5002851;28;20026;-63
2022/01/29 02:02:41;;;;;;;76.72;38.70;;;;;;;5.51;97.75;102694.47;5005206;28;20101;-62
2022/01/29 02:05:08;;;;;;;71.15;37.17;;;;;;;5.64;96.99;102692.25;5007830;28;20029;-62
2022/01/29 02:07:34;;;;;;;75.72;38.67;;;;;;;5.48;98.04;102679.31;5007098;28;20340;-63
2022/01/29 02:10:00;;;;;;;85.43;39.13;;;;;;;5.50;98.29;102674.53;5006606;28;20545;-63
2022/01/29 02:12:28;;;;;;;80.47;39.53;;;;;;;5.41;99.22;102680.91;5005388;28;20124;-63
2022/01/29 02:14:55;;;;;;;74.53;37.97;;;;;;;5.40;99.52;102679.19;5006715;28;20045;-63
2022/01/29 02:17:21;;;;;;;74.45;38.47;;;;;;;5.42;98.93;102674.44;5005467;28;20034;-63
2022/01/29 02:19:46;;;;;;;69.47;37.30;;;;;;;5.40;99.65;102676.47;5006946;28;20491;-63
2022/01/29 02:22:11;;;;;;;70.07;37.17;;;;;;;5.35;99.95;102681.53;5006199;28;20850;-63
2022/01/29 02:24:37;;;;;;;72.72;36.78;;;;;;;5.38;100.00;102670.31;5005577;28;20029;-63
2022/01/29 02:27:03;;;;;;;71.07;33.50;;;;;;;5.38;100.00;102675.78;5006348;28;20033;-63
2022/01/29 02:29:28;;;;;;;69.68;36.97;;;;;;;5.34;100.00;102677.09;5006978;28;20026;-62
2022/01/29 02:31:56;;;;;;;78.10;37.88;;;;;;;5.33;100.00;102675.38;5006877;28;20097;-63
2022/01/29 02:34:22;;;;;;;;;;;;;;;5.37;100.00;102668.59;5006254;28;20143;-63
2022/01/29 02:36:47;;;;;;;69.68;36.00;;;;;;;5.32;100.00;102654.56;5005864;28;20013;-63
2022/01/29 02:39:16;;;;;;;68.55;36.22;;;;;;;5.29;100.00;102657.63;5006640;28;20528;-63
2022/01/29 02:41:44;;;;;;;63.80;31.02;;;;;;;5.39;100.00;102644.78;5001148;28;20022;-63
2022/01/29 02:44:14;;;;;;;69.33;33.70;;;;;;;5.39;100.00;102650.25;4987013;28;20026;-63
2022/01/29 02:46:50;;;;;;;68.45;36.67;;;;;;;5.30;100.00;102642.97;4987114;28;20592;-62
2022/01/29 02:49:19;;;;;;;64.30;35.55;;;;;;;5.42;100.00;102648.06;5004293;28;20021;-62
2022/01/29 02:51:50;;;;;;;66.70;33.90;;;;;;;5.35;100.00;102640.66;5005304;28;20580;-62
2022/01/29 02:54:16;;;;;;;68.35;34.95;;;;;;;5.40;100.00;102639.19;5006165;28;20033;-62
2022/01/29 02:56:41;;;;;;;64.88;33.75;;;;;;;5.36;100.00;102639.63;5026767;23;20072;-62
2022/01/29 02:59:07;;;;;;;58.92;30.30;;;;;;;5.41;100.00;102640.03;5046120;28;20067;-62
2022/01/29 03:01:32;;;;;;;70.25;34.60;;;;;;;5.44;100.00;102639.75;5034925;28;20026;-62
2022/01/29 03:03:57;;;;;;;62.40;34.67;;;;;;;5.39;100.00;102633.88;5012549;28;20038;-62
2022/01/29 03:06:22;;;;;;;68.22;35.20;;;;;;;5.40;100.00;102636.44;5005469;28;20022;-62
2022/01/29 03:08:48;;;;;;;65.55;33.08;;;;;;;5.40;100.00;102627.44;5025206;28;20419;-62
2022/01/29 03:11:18;;;;;;;67.47;34.53;;;;;;;5.42;100.00;102625.38;5025887;28;20022;-62
2022/01/29 03:13:44;;;;;;;61.95;33.13;;;;;;;5.41;100.00;102624.53;5023321;28;20123;-62
2022/01/29 03:16:09;;;;;;;59.65;32.28;;;;;;;5.45;100.00;102620.50;5026101;28;20112;-62
2022/01/29 03:18:34;;;;;;;68.85;33.90;;;;;;;5.46;100.00;102599.56;5026211;28;20017;-63
2022/01/29 03:20:59;;;;;;;63.92;32.85;;;;;;;5.47;100.00;102607.59;5024492;28;20037;-62
2022/01/29 03:23:25;;;;;;;63.85;32.28;;;;;;;5.46;100.00;102600.41;5023611;28;20036;-62
2022/01/29 03:25:50;;;;;;;65.18;33.00;;;;;;;5.47;100.00;102598.53;5025468;28;20486;-63
2022/01/29 03:28:15;;;;;;;66.82;33.17;;;;;;;5.46;100.00;102591.38;5025363;28;20057;-62
2022/01/29 03:30:41;;;;;;;63.42;33.65;;;;;;;5.46;100.00;102596.81;5024829;28;20492;-62
2022/01/29 03:33:06;;;;;;;66.18;32.20;;;;;;;5.51;100.00;102605.41;5025919;28;20029;-62
2022/01/29 03:35:31;;;;;;;67.68;35.38;;;;;;;5.58;100.00;102598.34;5023702;28;20032;-62
2022/01/29 03:37:56;;;;;;;70.68;33.90;;;;;;;5.52;100.00;102595.34;5025276;28;20639;-62
2022/01/29 03:40:22;;;;;;;64.22;30.73;;;;;;;5.49;100.00;102585.63;5025281;28;20112;-62
2022/01/29 03:42:59;;;;;;;66.38;33.38;;;;;;;5.51;100.00;102582.75;5023449;28;20346;-62
2022/01/29 03:45:25;;;;;;;68.25;34.53;;;;;;;5.62;100.00;102571.59;5024934;28;20026;-62
2022/01/29 03:47:50;;;;;;;69.60;33.60;;;;;;;5.57;100.00;102580.25;5024727;28;20021;-62
2022/01/29 03:50:15;;;;;;;69.18;34.80;;;;;;;5.57;100.00;102574.78;5025228;28;20048;-62
2022/01/29 03:52:41;;;;;;;68.15;34.28;;;;;;;5.70;100.00;102571.69;5022664;28;20022;-62
2022/01/29 03:55:06;;;;;;;67.07;34.63;;;;;;;5.69;100.00;102576.28;5025053;28;20053;-62
2022/01/29 03:57:32;;;;;;;75.03;36.03;;;;;;;5.62;100.00;102577.91;5005489;28;20026;-62
2022/01/29 03:59:57;;;;;;;73.30;37.42;;;;;;;5.63;100.00;102570.63;5012276;28;20030;-62
2022/01/29 04:02:22;;;;;;;65.88;30.92;;;;;;;5.65;100.00;102569.44;5023131;28;20411;-62
2022/01/29 04:04:47;;;;;;;72.40;34.22;;;;;;;5.65;100.00;102576.75;5023721;28;20034;-62
2022/01/29 04:07:13;;;;;;;74.18;36.17;;;;;;;5.63;100.00;102571.47;5024257;28;20462;-62
2022/01/29 04:09:48;;;;;;;73.43;35.15;;;;;;;5.76;100.00;102575.66;5023121;28;20037;-62
2022/01/29 04:12:14;;;;;;;73.80;36.15;;;;;;;5.71;100.00;102568.81;5023069;28;20055;-63
2022/01/29 04:14:39;;;;;;;73.65;35.70;;;;;;;5.78;100.00;102563.59;5023731;28;20026;-63
2022/01/29 04:17:05;;;;;;;76.82;36.05;;;;;;;5.75;100.00;102560.31;5025214;28;20033;-62
2022/01/29 04:19:31;;;;;;;67.78;32.03;;;;;;;5.77;100.00;102559.13;5024940;28;20053;-62
2022/01/29 04:21:57;;;;;;;74.30;34.92;;;;;;;5.79;100.00;102564.44;5021775;28;20029;-62
2022/01/29 04:24:22;;;;;;;72.45;33.75;;;;;;;5.82;100.00;102551.34;5024346;28;20025;-62
2022/01/29 04:26:48;;;;;;;70.40;34.22;;;;;;;5.81;100.00;102555.09;5024449;28;20467;-62
2022/01/29 04:29:13;;;;;;;66.20;35.45;;;;;;;6.03;100.00;102552.91;5024254;28;20502;-63
2022/01/29 04:31:55;;;;;;;73.85;37.05;;;;;;;5.90;100.00;102543.25;5023929;28;20380;-62
2022/01/29 04:34:20;;;;;;;68.47;34.58;;;;;;;6.03;100.00;102547.44;5023741;28;20041;-62
2022/01/29 04:36:46;;;;;;;68.55;33.28;;;;;;;5.89;100.00;102551.59;5023396;28;20511;-63
2022/01/29 04:39:11;;;;;;;70.50;35.72;;;;;;;5.89;100.00;102548.84;5024400;28;20700;-62
2022/01/29 04:41:37;;;;;;;73.63;35.88;;;;;;;5.87;100.00;102539.97;5022885;28;20161;-63
2022/01/29 04:44:03;;;;;;;70.80;32.45;;;;;;;5.90;100.00;102542.38;5023841;28;20128;-62
2022/01/29 04:46:28;;;;;;;66.78;31.92;;;;;;;5.97;100.00;102538.88;5024111;28;20375;-63
2022/01/29 04:48:54;;;;;;;73.65;34.85;;;;;;;5.91;100.00;102533.19;5024013;28;20025;-63
2022/01/29 04:51:19;;;;;;;68.07;34.10;;;;;;;5.91;100.00;102536.78;5022805;28;20105;-63
2022/01/29 04:53:45;;;;;;;69.57;33.65;;;;;;;5.94;100.00;102539.22;5022601;28;20090;-63
2022/01/29 04:56:10;;;;;;;74.30;33.15;;;;;;;5.95;100.00;102526.44;5015971;28;20073;-63
2022/01/29 04:58:35;;;;;;;71.60;35.45;;;;;;;6.00;100.00;102521.34;5004597;28;20026;-62
2022/01/29 05:01:01;;;;;;;68.05;33.20;;;;;;;6.04;100.00;102511.84;5003886;28;20101;-63
2022/01/29 05:03:26;;;;;;;77.03;36.17;;;;;;;6.04;100.00;102521.91;5006261;28;20041;-62
2022/01/29 05:05:51;;;;;;;71.30;34.03;;;;;;;6.06;100.00;102514.41;5023056;28;20034;-62
2022/01/29 05:08:17;;;;;;;68.22;35.50;;;;;;;6.06;100.00;102511.69;5024503;28;20045;-62
2022/01/29 05:10:43;;;;;;;70.30;33.55;;;;;;;6.11;100.00;102509.31;5023340;28;20028;-62
2022/01/29 05:13:11;;;;;;;76.05;36.80;;;;;;;6.11;100.00;102506.59;5022759;28;20504;-62
2022/01/29 05:28:58;;;;;;;76.75;36.53;;;;;;;6.15;100.00;102508.00;5023377;28;20049;-62
2022/01/29 05:31:24;;;;;;;81.80;37.08;;;;;;;6.17;100.00;102506.78;5023446;28;20029;-62
2022/01/29 05:33:49;;;;;;;75.90;35.53;;;;;;;6.18;100.00;102504.91;5023479;28;20033;-63
2022/01/29 05:36:14;;;;;;;81.22;37.75;;;;;;;6.21;100.00;102499.16;5023411;28;20175;-62
2022/01/29 05:38:40;;;;;;;85.63;38.13;;;;;;;6.21;100.00;102504.63;5027650;28;20100;-62
2022/01/29 05:41:05;;;;;;;79.18;35.25;;;;;;;6.32;100.00;102498.03;5027497;28;20026;-63
2022/01/29 05:43:31;;;;;;;80.80;37.13;;;;;;;6.28;100.00;102489.28;5025285;28;20507;-63
2022/01/29 05:45:56;;;;;;;81.18;37.60;;;;;;;6.33;100.00;102486.09;5026982;28;20028;-62
2022/01/29 05:48:21;;;;;;;77.15;39.13;;;;;;;6.30;100.00;102491.88;5027740;28;20052;-63
2022/01/29 05:50:47;;;;;;;86.45;39.92;;;;;;;6.31;100.00;102488.13;5026040;28;20171;-63
2022/01/29 05:53:12;;;;;;;83.13;39.65;;;;;;;6.29;100.00;102491.03;5026681;28;20037;-63
2022/01/29 05:55:38;;;;;;;85.82;37.45;;;;;;;6.31;100.00;102482.69;5031233;28;20067;-63
2022/01/29 05:58:03;;;;;;;87.72;40.45;;;;;;;6.34;100.00;102479.63;5047766;28;20036;-63
2022/01/29 06:00:28;;;;;;;85.75;40.13;;;;;;;6.33;100.00;102481.47;5047204;28;20356;-63
2022/01/29 06:03:00;;;;;;;86.72;41.30;;;;;;;6.38;100.00;102472.81;5046880;28;20040;-63
2022/01/29 06:05:25;;;;;;;96.85;41.42;;;;;;;6.36;100.00;102475.72;5026708;28;20048;-63
2022/01/29 06:07:51;;;;;;;94.75;42.17;;;;;;;6.40;100.00;102481.69;5026876;28;20025;-63
2022/01/29 06:10:17;;;;;;;90.95;41.85;;;;;;;6.48;100.00;102473.53;5027294;28;20018;-62
2022/01/29 06:12:42;;;;;;;87.70;40.80;;;;;;;6.46;100.00;102476.44;5025579;28;20477;-62
2022/01/29 06:15:08;;;;;;;92.07;43.28;;;;;;;6.51;100.00;102478.69;5026491;28;20040;-63
2022/01/29 06:17:33;;;;;;;84.18;41.63;;;;;;;6.50;100.00;102455.13;5026016;28;20029;-63
2022/01/29 06:19:58;;;;;;;94.32;43.08;;;;;;;6.50;100.00;102461.44;5025922;28;20025;-62
2022/01/29 06:22:25;;;;;;;87.15;41.72;;;;;;;6.55;100.00;102460.09;5022124;28;20515;-63
2022/01/29 06:24:50;;;;;;;89.35;43.90;;;;;;;6.58;100.00;102463.34;5026775;28;20072;-63
2022/01/29 06:27:15;;;;;;;87.47;41.72;;;;;;;6.65;100.00;102458.94;5025222;28;20057;-63
2022/01/29 06:29:40;;;;;;;86.93;42.08;;;;;;;6.63;100.00;102455.50;5022210;28;20029;-63
2022/01/29 06:32:06;;;;;;;90.18;45.03;;;;;;;6.64;100.00;102457.25;5023336;28;20447;-61
2022/01/29 06:34:31;;;;;;;84.40;41.55;;;;;;;6.71;100.00;102451.97;5023673;28;20056;-61
2022/01/29 06:36:57;;;;;;;81.35;39.78;;;;;;;6.82;100.00;102465.31;5025389;28;20036;-61
2022/01/29 06:39:22;;;;;;;87.93;41.80;;;;;;;6.75;100.00;102456.06;5026717;28;20448;-61
2022/01/29 06:41:47;;;;;;;85.35;43.03;;;;;;;6.76;100.00;102455.06;5023800;28;20384;-61
2022/01/29 06:44:12;;;;;;;80.75;40.47;;;;;;;6.82;100.00;102448.91;5023886;28;20061;-61
2022/01/29 06:46:38;;;;;;;83.70;41.28;;;;;;;6.82;100.00;102431.69;5023181;28;20037;-61
2022/01/29 06:49:03;;;;;;;84.38;41.35;;;;;;;6.85;100.00;102434.09;5004932;28;20687;-61
2022/01/29 06:51:28;;;;;;;85.93;41.55;;;;;;;6.87;100.00;102429.31;5008079;28;20022;-61
2022/01/29 06:53:53;;;;;;;78.47;37.83;;;;;;;6.92;100.00;102432.38;5025741;28;20537;-61
2022/01/29 06:56:18;;;;;;;77.22;39.80;;;;;;;6.92;100.00;102425.03;5035311;28;20041;-61
2022/01/29 06:58:44;;;;;;;81.70;39.58;;;;;;;6.90;100.00;102420.78;5045484;28;20036;-61
2022/01/29 07:01:09;;;;;;;78.43;37.42;;;;;;;6.92;100.00;102421.47;5037403;28;20072;-61
2022/01/29 07:03:34;;;;;;;76.93;39.47;;;;;;;6.98;100.00;102418.06;5025104;28;20025;-61
2022/01/29 07:05:59;;;;;;;74.32;40.47;;;;;;;7.01;100.00;102413.09;5039505;28;20028;-61
2022/01/29 07:08:25;;;;;;;79.03;40.00;;;;;;;6.99;100.00;102419.75;5046038;28;20021;-61
2022/01/29 07:10:51;;;;;;;74.55;38.40;;;;;;;7.01;100.00;102417.72;5031688;28;20821;-61
2022/01/29 07:13:16;;;;;;;78.60;38.90;;;;;;;7.03;100.00;102426.59;5025008;28;20064;-60
2022/01/29 07:15:41;;;;;;;69.95;36.50;;;;;;;7.05;100.00;102410.91;5029695;28;20043;-61
2022/01/29 07:18:07;;;;;;;76.63;38.67;;;;;;;7.09;100.00;102406.78;5026429;28;20033;-61
2022/01/29 07:20:32;;;;;;;73.95;37.33;;;;;;;7.04;100.00;102422.84;5024547;28;20112;-62
2022/01/29 07:22:58;;;;;;;73.90;38.03;;;;;;;7.05;100.00;102418.25;5023979;28;20673;-61
2022/01/29 07:25:25;;;;;;;75.88;38.67;;;;;;;7.12;100.00;102414.66;5025339;28;20037;-61
2022/01/29 07:27:50;;;;;;;71.63;37.83;;;;;;;7.07;100.00;102416.19;5025373;28;20025;-61
2022/01/29 07:30:16;;;;;;;67.60;37.22;;;;;;;7.06;100.00;102418.06;5025357;28;20426;-61
2022/01/29 07:32:42;;;;;;;75.32;38.88;;;;;;;7.10;100.00;102411.25;5024142;28;20029;-61
2022/01/29 07:35:08;;;;;;;74.40;39.72;;;;;;;7.10;100.00;102416.72;5022777;28;20091;-61
2022/01/29 07:37:33;;;;;;;80.93;40.20;;;;;;;7.11;100.00;102410.22;5025642;28;20472;-61
2022/01/29 07:39:58;;;;;;;71.18;37.13;;;;;;;7.14;100.00;102407.13;5025195;28;20052;-62
2022/01/29 07:42:24;;;;;;;75.97;38.85;;;;;;;7.19;100.00;102410.22;5023662;28;20041;-62
2022/01/29 07:44:49;;;;;;;71.05;37.85;;;;;;;7.20;100.00;102413.81;5023176;28;20021;-61
2022/01/29 07:47:14;;;;;;;70.32;38.50;;;;;;;7.21;100.00;102407.31;5025307;28;20539;-61
2022/01/29 07:49:39;;;;;;;63.25;32.20;;;;;;;7.29;100.00;102402.69;5023955;28;20048;-61
2022/01/29 07:52:05;;;;;;;71.85;37.35;;;;;;;7.24;100.00;102412.44;5024878;28;20021;-61
2022/01/29 07:54:30;;;;;;;71.95;37.55;;;;;;;7.25;100.00;102411.44;5024848;28;20120;-61
2022/01/29 07:56:56;;;;;;;70.53;36.13;;;;;;;7.31;100.00;102409.91;5010240;28;20527;-61
2022/01/29 07:59:21;;;;;;;69.78;37.38;;;;;;;7.28;100.00;102398.25;5018546;28;20064;-61
2022/01/29 08:01:46;;;;;;;71.82;36.53;;;;;;;7.28;100.00;102395.53;5024618;28;20100;-61
2022/01/29 08:04:11;;;;;;;69.30;35.80;;;;;;;7.31;100.00;102388.03;5024020;28;20056;-62
2022/01/29 08:06:37;;;;;;;68.70;36.92;;;;;;;7.41;100.00;102392.28;5024908;28;20025;-62
2022/01/29 08:09:02;;;;;;;74.35;35.58;;;;;;;7.39;100.00;102390.72;5024140;28;20041;-61
2022/01/29 08:11:27;;;;;;;72.15;37.15;;;;;;;7.39;100.00;102386.13;5023348;28;20229;-61
2022/01/29 08:13:53;;;;;;;69.32;35.78;;;;;;;7.45;100.00;102387.31;5023856;28;20094;-61
2022/01/29 08:16:18;;;;;;;69.50;36.55;;;;;;;7.49;100.00;102385.94;5018760;28;20124;-61
2022/01/29 08:18:45;;;;;;;67.05;35.03;;;;;;;7.51;100.00;102383.91;5023956;28;20033;-61
2022/01/29 08:21:15;;;;;;;72.53;36.97;;;;;;;7.49;100.00;102370.38;5021514;28;20087;-61
2022/01/29 08:23:41;;;;;;;67.38;35.42;;;;;;;7.56;100.00;102369.72;5022059;28;20439;-61
2022/01/29 08:26:07;;;;;;;65.05;36.53;;;;;;;7.58;100.00;102362.19;5024639;28;20112;-61
2022/01/29 08:28:32;;;;;;;64.00;34.47;;;;;;;7.61;100.00;102370.06;5023837;28;20021;-61
2022/01/29 08:30:57;;;;;;;69.25;36.38;;;;;;;7.63;100.00;102370.72;5022337;28;20091;-61
2022/01/29 08:33:23;;;;;;;64.25;35.15;;;;;;;7.66;100.00;102360.28;5023735;28;20017;-61
2022/01/29 08:35:48;;;;;;;59.50;33.85;;;;;;;7.72;100.00;102362.34;5023060;28;20484;-61
2022/01/29 08:38:14;;;;;;;64.50;35.05;;;;;;;7.67;100.00;102362.00;5016090;28;20024;-61
2022/01/29 08:40:40;;;;;;;60.45;32.67;;;;;;;7.69;100.00;102357.19;5021294;28;20546;-61
2022/01/29 08:43:05;;;;;;;64.68;34.60;;;;;;;7.71;100.00;102363.38;5017481;28;20095;-62
2022/01/29 08:45:31;;;;;;;60.15;33.30;;;;;;;7.76;100.00;102357.38;5003745;28;20148;-62
2022/01/29 08:47:56;;;;;;;59.33;33.63;;;;;;;7.79;100.00;102354.25;5009983;28;20105;-62
2022/01/29 08:50:21;;;;;;;56.08;31.77;;;;;;;7.80;100.00;102351.34;5022274;28;20131;-62
2022/01/29 08:52:47;;;;;;;57.80;34.97;;;;;;;7.85;100.00;102345.34;5022231;28;20055;-62
2022/01/29 08:55:12;;;;;;;56.50;32.15;;;;;;;7.89;100.00;102351.34;5022073;28;20048;-62
2022/01/29 08:57:38;;;;;;;54.10;30.45;;;;;;;7.94;100.00;102347.03;5022527;28;20022;-62
2022/01/29 09:00:06;;;;;;;58.67;32.75;;;;;;;7.94;100.00;102337.97;5023621;28;20021;-62
2022/01/29 09:02:31;;;;;;;57.17;32.20;;;;;;;7.99;100.00;102338.28;5022616;28;20043;-62
2022/01/29 09:04:59;;;;;;;57.40;33.30;;;;;;;7.96;100.00;102330.47;5022317;28;20022;-62
2022/01/29 09:07:26;;;;;;;57.70;33.75;;;;;;;7.98;100.00;102325.66;5023861;28;20021;-62
2022/01/29 09:09:51;;;;;;;59.38;34.53;;;;;;;8.06;100.00;102331.09;5021639;28;20025;-62
2022/01/29 09:12:17;;;;;;;54.33;32.03;;;;;;;8.09;100.00;102328.00;5022452;28;20018;-63
2022/01/29 09:14:43;;;;;;;51.67;30.92;;;;;;;8.11;100.00;102325.94;5022781;28;20029;-62
2022/01/29 09:17:08;;;;;;;54.83;33.70;;;;;;;8.19;100.00;102334.09;5021059;28;20014;-63
2022/01/29 09:19:33;;;;;;;57.40;34.08;;;;;;;8.29;100.00;102334.72;5022504;28;20025;-62
2022/01/29 09:21:59;;;;;;;53.92;33.13;;;;;;;8.23;100.00;102323.66;5022701;28;20021;-62
2022/01/29 09:24:24;;;;;;;52.53;30.52;;;;;;;8.33;100.00;102318.81;5021175;28;20030;-63
2022/01/29 09:26:49;;;;;;;53.28;32.58;;;;;;;8.30;100.00;102313.69;5022999;28;20026;-63
2022/01/29 09:29:15;;;;;;;49.50;31.00;;;;;;;8.40;100.00;102319.81;5022424;28;20032;-63
2022/01/29 09:31:40;;;;;;;52.05;29.98;;;;;;;8.42;100.00;102327.88;5022634;28;20463;-63
2022/01/29 09:34:05;;;;;;;48.80;30.38;;;;;;;8.43;100.00;102322.22;5022476;28;20030;-63
2022/01/29 09:36:31;;;;;;;52.72;31.88;;;;;;;8.47;100.00;102317.22;5022273;28;20476;-63
2022/01/29 09:38:56;;;;;;;48.70;30.52;;;;;;;8.51;100.00;102326.75;5021312;28;20021;-63
2022/01/29 09:41:25;;;;;;;48.78;30.17;;;;;;;8.47;100.00;102331.78;5021640;28;20053;-63
2022/01/29 09:43:52;;;;;;;46.90;29.85;;;;;;;8.49;100.00;102317.88;5020516;28;20041;-63
2022/01/29 09:46:17;;;;;;;38.15;25.25;;;;;;;8.73;99.73;102315.00;5022960;28;20025;-63
2022/01/29 09:48:44;;;;;;;45.83;28.63;;;;;;;8.61;100.00;102321.91;5022768;28;20495;-63
2022/01/29 09:51:12;;;;;;;40.85;25.63;;;;;;;8.74;98.92;102321.31;5022919;28;20441;-63
2022/01/29 09:53:39;;;;;;;43.92;28.52;;;;;;;8.64;99.99;102328.91;5021517;28;20030;-63
2022/01/29 09:56:04;;;;;;;41.83;26.65;;;;;;;8.65;100.00;102333.34;5021819;28;20139;-63
2022/01/29 09:58:29;;;;;;;35.40;22.42;;;;;;;8.78;98.93;102328.13;5022556;28;20112;-63
2022/01/29 10:00:54;;;;;;;38.83;25.20;;;;;;;8.77;98.77;102334.66;5022538;28;20504;-63
2022/01/29 10:03:20;;;;;;;38.08;24.50;;;;;;;8.78;98.84;102330.88;5021429;28;20028;-63
2022/01/29 10:05:48;;;;;;;38.22;23.98;;;;;;;8.81;98.62;102334.09;5020909;28;20468;-63
2022/01/29 10:08:14;;;;;;;35.67;22.52;;;;;;;8.87;98.15;102328.91;5022855;28;20026;-63
2022/01/29 10:10:50;;;;;;;38.65;24.05;;;;;;;8.91;97.83;102322.88;5021714;28;20401;-64
2022/01/29 10:13:32;;;;;;;37.80;24.58;;;;;;;8.86;98.89;102316.25;5022557;28;20055;-63
2022/01/29 10:16:12;;;;;;;35.97;20.70;;;;;;;8.90;97.99;102325.81;5020198;28;20025;-62
2022/01/29 10:18:39;;;;;;;34.75;21.15;;;;;;;8.92;98.16;102318.25;5022100;28;20443;-62
2022/01/29 10:21:10;;;;;;;33.20;22.25;;;;;;;9.02;96.92;102307.88;5022619;28;20025;-62
2022/01/29 10:23:35;;;;;;;35.42;22.88;;;;;;;8.96;97.42;102309.47;5023632;28;20037;-62
2022/01/29 10:26:02;;;;;;;32.00;21.98;;;;;;;8.97;97.78;102303.00;5026482;28;20037;-62
2022/01/29 10:28:27;;;;;;;31.00;21.50;;;;;;;9.01;97.82;102295.22;5026227;28;20525;-62
2022/01/29 10:30:58;;;;;;;30.65;20.75;;;;;;;9.04;97.50;102282.00;5026041;28;20022;-62
2022/01/29 10:33:31;;;;;;;29.48;19.50;;;;;;;9.16;96.67;102278.81;5025806;28;20032;-62
2022/01/29 10:35:58;;;;;;;30.95;19.75;;;;;;;9.27;96.44;102278.34;5024752;28;20033;-62
2022/01/29 10:38:29;;;;;;;30.35;18.60;;;;;;;9.38;96.12;102266.06;5026214;28;20029;-62
2022/01/29 10:41:29;;;;;;;27.17;19.00;;;;;;;9.48;95.95;102266.66;5024333;28;20416;-62
2022/01/29 10:44:14;;;;;;;27.10;17.50;;;;;;;9.39;95.31;102279.63;5025611;28;20100;-62
2022/01/29 10:46:48;;;;;;;25.55;17.10;;;;;;;9.36;95.02;102275.34;5025725;28;20026;-62
2022/01/29 10:49:24;;;;;;;24.08;13.50;;;;;;;9.47;94.85;102265.78;5025371;28;20282;-63
2022/01/29 10:51:58;;;;;;;26.70;17.55;;;;;;;9.55;94.32;102253.91;5021579;28;20026;-63
2022/01/29 10:54:24;;;;;;;25.83;17.15;;;;;;;9.66;92.74;102261.66;5025015;28;20458;-63
2022/01/29 10:56:52;;;;;;;24.38;16.52;;;;;;;9.65;92.81;102270.06;5024745;28;20073;-62
2022/01/29 10:59:17;;;;;;;26.13;17.00;;;;;;;9.57;93.96;102268.25;5024785;28;20029;-62
2022/01/29 11:01:49;;;;;;;19.42;13.57;;;;;;;9.72;92.90;102260.03;5025448;28;20040;-62
2022/01/29 11:04:14;;;;;;;23.67;16.30;;;;;;;9.65;nan;102257.19;5023966;28;20130;-62
2022/01/29 11:06:44;;;;;;;20.80;14.40;;;;;;;9.68;92.13;102256.84;5024662;28;20040;-62
2022/01/29 11:09:11;;;;;;;16.42;10.82;;;;;;;9.69;91.57;102244.81;5022489;28;20040;-62
2022/01/29 11:11:38;;;;;;;19.75;12.05;;;;;;;9.65;92.04;102257.19;5025772;28;20036;-63
2022/01/29 11:14:04;;;;;;;16.73;9.85;;;;;;;9.67;92.16;102246.03;5025135;28;20499;-63
2022/01/29 11:16:29;;;;;;;14.65;10.05;;;;;;;9.65;91.92;102242.63;5023009;28;20065;-63
2022/01/29 11:18:54;;;;;;;16.77;9.25;;;;;;;9.75;91.26;102237.72;5025498;28;20036;-63
2022/01/29 11:21:20;;;;;;;16.35;9.35;;;;;;;9.76;91.45;102233.91;5018194;28;20033;-63
2022/01/29 11:23:46;;;;;;;12.20;7.07;;;;;;;9.80;91.30;102227.84;5023883;28;20037;-63